NSZ3295 LYTV-EKCH
Flight info
| Callsign | NSZ3295 |
|---|---|
| Flight time | N/A |
| Altitude | 36000 |
| Route | NIK DCT BAREB DCT REGLI L617 KOLOB DCT ROE M743 TIDVU |
| Aircraft | B738/M-SDE2E3GHIJ1LRWXY/LB1 |
Departure
| Time | 2026-05-04 11:28 |
|---|---|
| Airport | Tivat Airport (LYTV) |
Arrival
| Time | N/A |
|---|---|
| Airport | Copenhagen Kastrup Airport (EKCH) |
| Time | Latitude | Longitude | Altitude | Speed | Heading |
|---|---|---|---|---|---|
| 2026-05-04 11:16 | 42.41256 | 18.71648 | 17 ft | 0 kts | 162° |
| 2026-05-04 11:22 | 42.41223 | 18.71638 | 17 ft | 7 kts | 194° |
| 2026-05-04 11:22 | 42.41175 | 18.71678 | 16 ft | 10 kts | 138° |
| 2026-05-04 11:23 | 42.41114 | 18.71750 | 20 ft | 12 kts | 139° |
| 2026-05-04 11:23 | 42.41051 | 18.71822 | 19 ft | 12 kts | 140° |
| 2026-05-04 11:24 | 42.40671 | 18.72088 | 15 ft | 15 kts | 139° |
| 2026-05-04 11:25 | 42.40576 | 18.72199 | 15 ft | 19 kts | 139° |
| 2026-05-04 11:25 | 42.40476 | 18.72317 | 17 ft | 19 kts | 139° |
| 2026-05-04 11:25 | 42.40380 | 18.72430 | 17 ft | 18 kts | 139° |
| 2026-05-04 11:26 | 42.40196 | 18.72646 | 20 ft | 17 kts | 137° |
| 2026-05-04 11:27 | 42.39782 | 18.73139 | 19 ft | 57 kts | 319° |
| 2026-05-04 11:28 | 42.40253 | 18.72582 | 17 ft | 120 kts | 319° |
| 2026-05-04 11:28 | 42.41016 | 18.71677 | 45 ft | 167 kts | 318° |
| 2026-05-04 11:28 | 42.41919 | 18.70662 | 632 ft | 171 kts | 319° |
| 2026-05-04 11:28 | 42.42846 | 18.69613 | 1224 ft | 176 kts | 320° |
| 2026-05-04 11:29 | 42.43781 | 18.68546 | 1902 ft | 180 kts | 318° |
| 2026-05-04 11:29 | 42.44760 | 18.67378 | 2604 ft | 191 kts | 319° |
| 2026-05-04 11:29 | 42.45810 | 18.66149 | 3225 ft | 208 kts | 322° |
| 2026-05-04 11:29 | 42.47219 | 18.65426 | 3543 ft | 232 kts | 359° |
| 2026-05-04 11:31 | 42.58844 | 18.69645 | 8897 ft | 272 kts | 24° |
| 2026-05-04 11:33 | 42.69897 | 18.79654 | 14626 ft | 288 kts | 49° |
| 2026-05-04 11:33 | 42.71174 | 18.81784 | 15313 ft | 294 kts | 49° |
| 2026-05-04 11:33 | 42.72479 | 18.83946 | 16005 ft | 298 kts | 48° |
| 2026-05-04 11:34 | 42.73802 | 18.86131 | 16735 ft | 301 kts | 48° |
| 2026-05-04 11:34 | 42.75145 | 18.88343 | 17437 ft | 305 kts | 48° |
| 2026-05-04 11:34 | 42.76601 | 18.90443 | 18084 ft | 306 kts | 34° |
| 2026-05-04 11:34 | 42.78515 | 18.91691 | 18677 ft | 310 kts | 15° |
| 2026-05-04 11:35 | 42.80717 | 18.91968 | 18793 ft | 330 kts | 356° |
| 2026-05-04 11:35 | 42.83066 | 18.91650 | 18939 ft | 349 kts | 354° |
| 2026-05-04 11:35 | 42.85534 | 18.91236 | 19101 ft | 365 kts | 354° |
| 2026-05-04 11:35 | 42.88082 | 18.90787 | 19555 ft | 372 kts | 353° |
| 2026-05-04 11:36 | 42.90651 | 18.90332 | 20192 ft | 373 kts | 353° |
| 2026-05-04 11:36 | 42.93229 | 18.89882 | 20831 ft | 375 kts | 353° |
| 2026-05-04 11:36 | 42.95824 | 18.89436 | 21434 ft | 377 kts | 354° |
| 2026-05-04 11:36 | 42.98436 | 18.88995 | 21984 ft | 380 kts | 354° |
| 2026-05-04 11:37 | 43.01070 | 18.88555 | 22531 ft | 383 kts | 354° |
| 2026-05-04 11:37 | 43.03722 | 18.88114 | 23081 ft | 385 kts | 354° |
| 2026-05-04 11:37 | 43.06396 | 18.87672 | 23592 ft | 389 kts | 354° |
| 2026-05-04 11:37 | 43.09098 | 18.87227 | 23976 ft | 393 kts | 353° |
| 2026-05-04 11:38 | 43.11818 | 18.86777 | 24407 ft | 394 kts | 354° |
| 2026-05-04 11:38 | 43.14543 | 18.86327 | 24868 ft | 396 kts | 354° |
| 2026-05-04 11:38 | 43.17284 | 18.85873 | 25309 ft | 398 kts | 353° |
| 2026-05-04 11:38 | 43.20041 | 18.85415 | 25707 ft | 400 kts | 353° |
| 2026-05-04 11:39 | 43.22802 | 18.84958 | 26131 ft | 401 kts | 353° |
| 2026-05-04 11:39 | 43.25577 | 18.84495 | 26501 ft | 403 kts | 353° |
| 2026-05-04 11:40 | 43.42473 | 18.81676 | 28728 ft | 414 kts | 353° |
| 2026-05-04 11:41 | 43.45348 | 18.81196 | 29012 ft | 418 kts | 353° |
| 2026-05-04 11:41 | 43.48243 | 18.80711 | 29321 ft | 420 kts | 352° |
| 2026-05-04 11:41 | 43.51159 | 18.80223 | 29595 ft | 424 kts | 352° |
| 2026-05-04 11:41 | 43.54089 | 18.79734 | 29901 ft | 426 kts | 352° |
| 2026-05-04 11:42 | 43.57039 | 18.79239 | 30181 ft | 428 kts | 352° |
| 2026-05-04 11:42 | 43.59998 | 18.78741 | 30463 ft | 429 kts | 352° |
| 2026-05-04 11:42 | 43.62958 | 18.78243 | 30848 ft | 427 kts | 352° |
| 2026-05-04 11:42 | 43.65901 | 18.77747 | 31249 ft | 425 kts | 352° |
| 2026-05-04 11:43 | 43.68835 | 18.77253 | 31607 ft | 425 kts | 352° |
| 2026-05-04 11:43 | 43.71768 | 18.76758 | 31930 ft | 424 kts | 352° |
| 2026-05-04 11:43 | 43.74694 | 18.76264 | 32287 ft | 423 kts | 352° |
| 2026-05-04 11:43 | 43.77618 | 18.75769 | 32606 ft | 423 kts | 352° |
| 2026-05-04 11:44 | 43.80534 | 18.75276 | 32970 ft | 422 kts | 352° |
| 2026-05-04 11:44 | 43.83445 | 18.74784 | 33301 ft | 420 kts | 352° |
| 2026-05-04 11:44 | 43.86350 | 18.74291 | 33631 ft | 420 kts | 352° |
| 2026-05-04 11:44 | 43.89246 | 18.73799 | 33988 ft | 419 kts | 352° |
| 2026-05-04 11:45 | 43.92137 | 18.73308 | 34292 ft | 418 kts | 352° |
| 2026-05-04 11:45 | 43.95026 | 18.72816 | 34479 ft | 419 kts | 352° |
| 2026-05-04 11:45 | 43.97938 | 18.72320 | 34569 ft | 423 kts | 352° |
| 2026-05-04 11:45 | 44.00864 | 18.71822 | 34772 ft | 423 kts | 352° |
| 2026-05-04 11:46 | 44.03780 | 18.71326 | 35078 ft | 422 kts | 352° |
| 2026-05-04 11:46 | 44.06684 | 18.70831 | 35402 ft | 419 kts | 352° |
| 2026-05-04 11:46 | 44.09582 | 18.70336 | 35609 ft | 420 kts | 352° |
| 2026-05-04 11:46 | 44.12488 | 18.69839 | 35780 ft | 421 kts | 352° |
| 2026-05-04 11:47 | 44.15399 | 18.69339 | 35999 ft | 422 kts | 352° |
| 2026-05-04 11:47 | 44.18305 | 18.68842 | 36260 ft | 420 kts | 352° |
| 2026-05-04 11:47 | 44.21207 | 18.68344 | 36499 ft | 420 kts | 352° |
| 2026-05-04 11:47 | 44.24107 | 18.67845 | 36711 ft | 421 kts | 352° |
| 2026-05-04 11:48 | 44.27016 | 18.67345 | 36908 ft | 421 kts | 352° |
| 2026-05-04 11:48 | 44.29916 | 18.66847 | 37146 ft | 420 kts | 352° |
| 2026-05-04 11:48 | 44.32815 | 18.66348 | 37354 ft | 420 kts | 352° |
| 2026-05-04 11:48 | 44.35712 | 18.65849 | 37544 ft | 419 kts | 352° |
| 2026-05-04 11:49 | 44.38612 | 18.65349 | 37672 ft | 421 kts | 352° |
| 2026-05-04 11:49 | 44.41521 | 18.64846 | 37873 ft | 421 kts | 352° |
| 2026-05-04 11:49 | 44.44423 | 18.64345 | 38097 ft | 420 kts | 352° |
| 2026-05-04 11:50 | 44.50253 | 18.63335 | 38108 ft | 422 kts | 352° |
| 2026-05-04 11:50 | 44.56062 | 18.62326 | 38106 ft | 419 kts | 352° |
| 2026-05-04 11:51 | 44.61836 | 18.61323 | 38105 ft | 416 kts | 352° |
| 2026-05-04 11:51 | 44.67570 | 18.60323 | 38102 ft | 414 kts | 352° |
| 2026-05-04 11:52 | 44.73279 | 18.59326 | 38109 ft | 413 kts | 352° |
| 2026-05-04 11:52 | 44.78985 | 18.58327 | 38121 ft | 413 kts | 352° |
| 2026-05-04 11:53 | 44.84664 | 18.57332 | 38117 ft | 415 kts | 352° |
| 2026-05-04 11:53 | 44.90410 | 18.56323 | 38117 ft | 417 kts | 352° |
| 2026-05-04 11:55 | 45.13748 | 18.52205 | 38113 ft | 427 kts | 352° |
| 2026-05-04 11:56 | 45.19649 | 18.51158 | 38115 ft | 428 kts | 352° |
| 2026-05-04 11:56 | 45.25553 | 18.50108 | 38103 ft | 427 kts | 352° |
| 2026-05-04 11:57 | 45.30444 | 18.49235 | 38114 ft | 426 kts | 352° |
| 2026-05-04 11:57 | 45.36322 | 18.48186 | 38096 ft | 425 kts | 352° |
| 2026-05-04 11:58 | 45.42183 | 18.47139 | 38114 ft | 424 kts | 352° |
| 2026-05-04 11:58 | 45.48040 | 18.46089 | 38116 ft | 424 kts | 352° |
| 2026-05-04 11:59 | 45.53891 | 18.45038 | 38115 ft | 423 kts | 352° |
| 2026-05-04 11:59 | 45.59735 | 18.43984 | 38101 ft | 423 kts | 352° |
| 2026-05-04 12:00 | 45.65569 | 18.42932 | 38116 ft | 422 kts | 352° |
| 2026-05-04 12:00 | 45.71408 | 18.41879 | 38127 ft | 423 kts | 352° |
| 2026-05-04 12:01 | 45.77255 | 18.40949 | 38111 ft | 424 kts | 355° |
| 2026-05-04 12:02 | 45.97663 | 18.39222 | 38117 ft | 425 kts | 355° |
| 2026-05-04 12:03 | 46.03583 | 18.38692 | 38135 ft | 427 kts | 355° |
| 2026-05-04 12:03 | 46.09516 | 18.38150 | 38116 ft | 428 kts | 355° |
| 2026-05-04 12:04 | 46.15426 | 18.37612 | 38122 ft | 429 kts | 355° |
| 2026-05-04 12:04 | 46.21423 | 18.37064 | 38111 ft | 429 kts | 355° |
| 2026-05-04 12:05 | 46.27383 | 18.36519 | 38116 ft | 429 kts | 355° |
| 2026-05-04 12:05 | 46.33308 | 18.35980 | 38108 ft | 429 kts | 355° |
| 2026-05-04 12:06 | 46.39243 | 18.35436 | 38094 ft | 429 kts | 355° |
| 2026-05-04 12:06 | 46.45200 | 18.34889 | 38098 ft | 429 kts | 355° |
| 2026-05-04 12:07 | 46.51155 | 18.34340 | 38092 ft | 429 kts | 355° |
| 2026-05-04 12:07 | 46.57110 | 18.33790 | 38097 ft | 429 kts | 355° |
| 2026-05-04 12:08 | 46.63066 | 18.33239 | 38093 ft | 429 kts | 355° |
| 2026-05-04 12:08 | 46.69032 | 18.32685 | 38089 ft | 429 kts | 355° |
| 2026-05-04 12:09 | 46.74989 | 18.32132 | 38098 ft | 429 kts | 355° |
| 2026-05-04 12:09 | 46.80950 | 18.31577 | 38079 ft | 429 kts | 355° |
| 2026-05-04 12:10 | 46.86908 | 18.31022 | 38080 ft | 429 kts | 355° |
| 2026-05-04 12:10 | 46.92863 | 18.30465 | 38087 ft | 429 kts | 355° |
| 2026-05-04 12:11 | 46.98825 | 18.29907 | 38082 ft | 429 kts | 355° |
| 2026-05-04 12:11 | 47.04783 | 18.29345 | 38085 ft | 429 kts | 354° |
| 2026-05-04 12:12 | 47.10746 | 18.28781 | 38080 ft | 430 kts | 355° |
| 2026-05-04 12:12 | 47.16719 | 18.28218 | 38087 ft | 430 kts | 355° |
| 2026-05-04 12:14 | 47.40640 | 18.25946 | 38076 ft | 432 kts | 355° |
| 2026-05-04 12:15 | 47.46630 | 18.25377 | 38075 ft | 431 kts | 354° |
| 2026-05-04 12:15 | 47.52614 | 18.24805 | 38069 ft | 430 kts | 354° |
| 2026-05-04 12:16 | 47.58585 | 18.24235 | 38070 ft | 430 kts | 354° |
| 2026-05-04 12:16 | 47.64552 | 18.23664 | 38072 ft | 430 kts | 354° |
| 2026-05-04 12:17 | 47.70525 | 18.23090 | 38072 ft | 430 kts | 354° |
| 2026-05-04 12:17 | 47.76461 | 18.22515 | 38076 ft | 430 kts | 354° |
| 2026-05-04 12:18 | 47.82442 | 18.21932 | 38066 ft | 431 kts | 354° |
| 2026-05-04 12:18 | 47.88430 | 18.21352 | 38064 ft | 432 kts | 354° |
| 2026-05-04 12:19 | 47.94438 | 18.20768 | 38059 ft | 432 kts | 354° |
| 2026-05-04 12:19 | 48.00446 | 18.20183 | 38055 ft | 433 kts | 354° |
| 2026-05-04 12:20 | 48.06459 | 18.19595 | 38059 ft | 433 kts | 354° |
| 2026-05-04 12:20 | 48.12471 | 18.19008 | 38054 ft | 433 kts | 354° |
| 2026-05-04 12:21 | 48.18488 | 18.18418 | 38061 ft | 433 kts | 354° |
| 2026-05-04 12:21 | 48.24513 | 18.17823 | 38057 ft | 434 kts | 354° |
| 2026-05-04 12:22 | 48.30538 | 18.17229 | 38058 ft | 434 kts | 354° |
| 2026-05-04 12:22 | 48.36568 | 18.16631 | 38053 ft | 434 kts | 354° |
| 2026-05-04 12:23 | 48.42594 | 18.16034 | 38052 ft | 434 kts | 354° |
| 2026-05-04 12:23 | 48.48631 | 18.15441 | 38053 ft | 435 kts | 354° |
| 2026-05-04 12:24 | 48.54665 | 18.14840 | 38049 ft | 435 kts | 354° |
| 2026-05-04 12:24 | 48.60701 | 18.14236 | 38047 ft | 434 kts | 354° |
| 2026-05-04 12:25 | 48.66728 | 18.13629 | 38052 ft | 434 kts | 354° |
| 2026-05-04 12:25 | 48.72718 | 18.13026 | 38049 ft | 434 kts | 354° |
| 2026-05-04 12:26 | 48.78744 | 18.12421 | 38055 ft | 434 kts | 353° |
| 2026-05-04 12:26 | 48.84775 | 18.11817 | 38042 ft | 434 kts | 353° |
| 2026-05-04 12:27 | 48.90846 | 18.11199 | 38044 ft | 435 kts | 354° |
| 2026-05-04 12:27 | 48.96843 | 18.10592 | 38046 ft | 435 kts | 353° |
| 2026-05-04 12:28 | 49.02879 | 18.09983 | 38036 ft | 435 kts | 354° |
| 2026-05-04 12:28 | 49.08917 | 18.09368 | 38037 ft | 434 kts | 353° |
| 2026-05-04 12:29 | 49.14954 | 18.08753 | 38041 ft | 435 kts | 353° |
| 2026-05-04 12:29 | 49.20997 | 18.08131 | 38033 ft | 436 kts | 353° |
| 2026-05-04 12:30 | 49.27057 | 18.07511 | 38032 ft | 437 kts | 352° |
| 2026-05-04 12:30 | 49.33120 | 18.06893 | 38020 ft | 437 kts | 353° |
| 2026-05-04 12:31 | 49.39197 | 18.06267 | 38021 ft | 438 kts | 353° |
| 2026-05-04 12:31 | 49.45292 | 18.05640 | 38016 ft | 439 kts | 353° |
| 2026-05-04 12:32 | 49.54457 | 18.04687 | 38027 ft | 441 kts | 353° |
| 2026-05-04 12:33 | 49.60580 | 18.04050 | 38027 ft | 441 kts | 353° |
| 2026-05-04 12:33 | 49.66714 | 18.03407 | 38025 ft | 442 kts | 353° |
| 2026-05-04 12:34 | 49.72851 | 18.02769 | 38016 ft | 442 kts | 352° |
| 2026-05-04 12:34 | 49.78992 | 18.02127 | 38022 ft | 442 kts | 352° |
| 2026-05-04 12:35 | 49.85122 | 18.01486 | 38012 ft | 442 kts | 353° |
| 2026-05-04 12:35 | 49.90217 | 18.00950 | 38013 ft | 441 kts | 353° |